Time;durP1;ratioP1;P1;durP2;ratioP2;P2;SDS_P1;SDS_P2;PMS_P1;PMS_P2;Temp;Humidity;BMP_temperature;BMP_pressure;BME280_temperature;BME280_humidity;BME280_pressure;Samples;Min_cycle;Max_cycle;Signal;HPM_P1;HPM_P2
2024/04/08 00:01:01;;;;;;;12.20;2.47;;;13.70;99.90;;;;;;7372663;19;20389;-59
2024/04/08 00:03:27;;;;;;;7.63;2.53;;;13.70;99.90;;;;;;7362900;19;20612;-60
2024/04/08 00:05:53;;;;;;;12.00;2.85;;;13.70;99.90;;;;;;7367221;19;20018;-59
2024/04/08 00:08:20;;;;;;;9.60;2.50;;;13.70;99.90;;;;;;7367037;19;20049;-59
2024/04/08 00:10:46;;;;;;;12.05;2.88;;;13.70;99.90;;;;;;7370375;19;20022;-61
2024/04/08 00:13:13;;;;;;;9.70;2.72;;;13.70;99.10;;;;;;7357856;19;20828;-60
2024/04/08 00:15:39;;;;;;;14.48;3.03;;;13.50;95.80;;;;;;7385686;19;20469;-65
2024/04/08 00:18:05;;;;;;;11.90;3.30;;;13.50;99.90;;;;;;7384204;19;20434;-64
2024/04/08 00:20:33;;;;;;;9.57;2.80;;;13.50;99.80;;;;;;7370402;19;20501;-61
2024/04/08 00:23:01;;;;;;;9.82;3.08;;;13.50;96.80;;;;;;7360901;19;20078;-60
2024/04/08 00:25:27;;;;;;;12.98;2.95;;;13.50;99.60;;;;;;7371221;19;20018;-65
2024/04/08 00:27:55;;;;;;;9.93;2.60;;;13.50;99.90;;;;;;7387587;19;20011;-66
2024/04/08 00:30:21;;;;;;;11.98;3.00;;;13.40;99.90;;;;;;7379115;19;20365;-66
2024/04/08 00:32:47;;;;;;;11.85;3.00;;;13.40;99.90;;;;;;7387455;19;20078;-67
2024/04/08 00:35:13;;;;;;;7.75;2.70;;;13.30;99.90;;;;;;7379240;19;20055;-60
2024/04/08 00:37:39;;;;;;;11.65;3.13;;;13.30;99.90;;;;;;7385683;19;20470;-65
2024/04/08 00:40:06;;;;;;;10.57;3.28;;;13.20;99.90;;;;;;7383829;19;20384;-66
2024/04/08 00:42:32;;;;;;;11.50;3.45;;;13.30;99.90;;;;;;7375189;19;20492;-60
2024/04/08 00:44:59;;;;;;;13.00;3.38;;;13.30;99.90;;;;;;7377930;19;20025;-66
2024/04/08 00:47:26;;;;;;;10.57;3.22;;;13.30;99.90;;;;;;7383370;19;20354;-66
2024/04/08 00:49:52;;;;;;;11.00;3.00;;;13.30;99.90;;;;;;7371737;19;20018;-65
2024/04/08 00:52:18;;;;;;;7.75;2.83;;;13.30;99.90;;;;;;7374429;19;20041;-60
2024/04/08 00:54:48;;;;;;;7.80;2.83;;;13.30;99.90;;;;;;7377524;19;20057;-66
2024/04/08 00:57:15;;;;;;;8.90;2.92;;;13.30;99.90;;;;;;7368711;19;20387;-60
2024/04/08 00:59:41;;;;;;;11.30;3.80;;;13.30;99.90;;;;;;7370618;19;20026;-60
2024/04/08 01:02:08;;;;;;;8.93;3.42;;;13.30;99.90;;;;;;7378241;19;20498;-59
2024/04/08 01:04:34;;;;;;;9.43;3.50;;;13.20;99.90;;;;;;7371648;19;20023;-66
2024/04/08 01:07:01;;;;;;;9.07;4.18;;;13.30;99.90;;;;;;7382234;19;20019;-61
2024/04/08 01:09:28;;;;;;;9.18;3.40;;;13.20;99.90;;;;;;7367142;19;20018;-66
2024/04/08 01:11:56;;;;;;;12.75;4.03;;;13.20;99.90;;;;;;7377792;19;20115;-66
2024/04/08 01:14:24;;;;;;;10.88;3.70;;;13.20;99.90;;;;;;7374848;19;20034;-66
2024/04/08 01:16:50;;;;;;;10.07;4.38;;;13.20;99.90;;;;;;7380112;19;20384;-66
2024/04/08 01:19:22;;;;;;;9.00;4.05;;;13.10;99.90;;;;;;7363787;19;20356;-60
2024/04/08 01:21:49;;;;;;;10.10;4.63;;;13.10;99.90;;;;;;7364691;19;20856;-60
2024/04/08 01:24:16;;;;;;;10.43;3.97;;;13.10;99.90;;;;;;7368861;19;20037;-61
2024/04/08 01:26:42;;;;;;;10.00;3.88;;;13.10;99.90;;;;;;7369607;19;20382;-61
2024/04/08 01:29:08;;;;;;;7.38;3.90;;;13.10;99.90;;;;;;7369720;19;20309;-60
2024/04/08 01:31:35;;;;;;;10.20;4.22;;;13.10;99.90;;;;;;7370220;19;20035;-60
2024/04/08 01:34:01;;;;;;;9.93;4.10;;;13.10;99.90;;;;;;7363481;19;20039;-60
2024/04/08 01:36:27;;;;;;;9.73;4.38;;;13.10;99.90;;;;;;7369012;19;20507;-60
2024/04/08 01:38:54;;;;;;;8.93;4.55;;;13.10;99.90;;;;;;7364484;19;20083;-60
2024/04/08 01:41:20;;;;;;;8.35;4.10;;;13.10;99.90;;;;;;7368332;19;20029;-61
2024/04/08 01:43:46;;;;;;;8.57;4.07;;;13.20;99.90;;;;;;7359805;19;20026;-61
2024/04/08 01:46:13;;;;;;;10.00;4.63;;;13.20;99.90;;;;;;7368394;19;20422;-66
2024/04/08 01:48:39;;;;;;;6.60;3.58;;;13.20;99.90;;;;;;7377336;19;20011;-67
2024/04/08 01:51:05;;;;;;;8.73;3.95;;;13.10;99.90;;;;;;7373603;19;20478;-65
2024/04/08 01:53:31;;;;;;;14.82;4.13;;;13.00;99.90;;;;;;7380914;19;20553;-66
2024/04/08 01:55:57;;;;;;;7.90;4.20;;;13.00;99.90;;;;;;7375500;19;20505;-67
2024/04/08 01:58:23;;;;;;;10.25;4.65;;;13.00;99.90;;;;;;7373592;19;20018;-68
2024/04/08 02:00:49;;;;;;;8.88;4.10;;;12.90;99.90;;;;;;7375024;19;20021;-68
2024/04/08 02:03:16;;;;;;;12.70;4.80;;;12.90;99.90;;;;;;7373867;19;20036;-69
2024/04/08 02:05:45;;;;;;;12.98;4.22;;;12.90;99.90;;;;;;7364536;19;20026;-67
2024/04/08 02:08:11;;;;;;;9.05;4.72;;;12.90;99.90;;;;;;7373796;19;20607;-67
2024/04/08 02:10:38;;;;;;;10.98;4.63;;;12.80;99.90;;;;;;7366301;19;20018;-67
2024/04/08 02:13:04;;;;;;;12.38;4.75;;;12.80;99.90;;;;;;7363923;19;20490;-67
2024/04/08 02:15:31;;;;;;;8.35;5.07;;;12.90;99.90;;;;;;7366489;19;20025;-59
2024/04/08 02:17:57;;;;;;;10.27;4.55;;;12.90;99.90;;;;;;7371054;19;20018;-66
2024/04/08 02:20:23;;;;;;;13.75;5.45;;;12.90;99.90;;;;;;7367728;19;20049;-60
2024/04/08 02:22:49;;;;;;;11.20;4.75;;;12.80;99.90;;;;;;7360392;19;20014;-66
2024/04/08 02:25:17;;;;;;;9.85;5.13;;;12.90;99.90;;;;;;7370088;19;20613;-59
2024/04/08 02:27:46;;;;;;;11.05;5.18;;;12.90;99.90;;;;;;7364235;19;20015;-67
2024/04/08 02:30:13;;;;;;;9.48;4.45;;;12.90;99.90;;;;;;7361159;19;20030;-59
2024/04/08 02:32:39;;;;;;;9.88;5.43;;;12.90;99.90;;;;;;7362360;19;20055;-66
2024/04/08 02:35:05;;;;;;;11.20;4.70;;;12.90;99.90;;;;;;7363529;19;20022;-66
2024/04/08 02:37:32;;;;;;;14.73;5.88;;;12.90;99.90;;;;;;7368492;19;20014;-67
2024/04/08 02:39:58;;;;;;;10.52;5.72;;;12.90;99.90;;;;;;7366861;19;21592;-67
2024/04/08 02:42:24;;;;;;;10.73;5.15;;;12.90;99.90;;;;;;7364901;19;20018;-67
2024/04/08 02:44:50;;;;;;;9.85;5.78;;;12.90;99.90;;;;;;7374875;19;20108;-67
2024/04/08 02:47:17;;;;;;;14.80;6.10;;;12.80;99.90;;;;;;7372566;19;20434;-67
2024/04/08 02:49:43;;;;;;;9.63;5.90;;;12.90;99.90;;;;;;7371947;19;20897;-67
2024/04/08 02:52:09;;;;;;;12.98;6.00;;;12.80;99.90;;;;;;7374957;19;20053;-66
2024/04/08 02:54:35;;;;;;;10.57;6.15;;;12.80;99.90;;;;;;7373842;19;20018;-66
2024/04/08 02:57:01;;;;;;;10.18;5.75;;;12.80;99.90;;;;;;7370635;19;20632;-60
2024/04/08 02:59:28;;;;;;;10.15;6.55;;;12.70;99.90;;;;;;7366137;19;20535;-60
2024/04/08 03:01:54;;;;;;;11.52;5.93;;;12.70;99.90;;;;;;7368643;19;20057;-59
2024/04/08 03:04:20;;;;;;;18.33;6.85;;;12.70;99.90;;;;;;7362308;19;20517;-59
2024/04/08 03:06:46;;;;;;;13.48;6.43;;;12.70;99.90;;;;;;7362131;19;20018;-59
2024/04/08 03:09:12;;;;;;;16.55;6.93;;;12.70;99.90;;;;;;7369367;19;20007;-60
2024/04/08 03:11:38;;;;;;;9.82;6.55;;;12.70;99.90;;;;;;7362669;19;20102;-60
2024/04/08 03:14:05;;;;;;;10.10;6.40;;;12.70;99.90;;;;;;7370141;19;20018;-60
2024/04/08 03:16:33;;;;;;;11.38;6.32;;;12.70;99.90;;;;;;7366049;19;20019;-60
2024/04/08 03:18:59;;;;;;;14.10;6.75;;;12.70;99.90;;;;;;7375120;19;20057;-60
2024/04/08 03:21:25;;;;;;;16.40;7.18;;;12.70;99.90;;;;;;7368723;19;20085;-68
2024/04/08 03:23:51;;;;;;;13.85;6.20;;;12.70;99.90;;;;;;7376520;19;20668;-67
2024/04/08 03:26:17;;;;;;;13.90;6.65;;;12.70;99.90;;;;;;7370601;19;20029;-67
2024/04/08 03:28:43;;;;;;;16.35;7.30;;;12.70;99.90;;;;;;7373755;19;20026;-60
2024/04/08 03:31:10;;;;;;;12.48;6.60;;;12.70;99.90;;;;;;7373106;19;20015;-68
2024/04/08 03:33:37;;;;;;;12.18;7.40;;;12.70;99.90;;;;;;7375851;19;20593;-60
2024/04/08 03:36:16;;;;;;;12.15;7.22;;;12.60;99.90;;;;;;7367946;19;20018;-60
2024/04/08 03:38:44;;;;;;;13.38;6.80;;;12.60;99.90;;;;;;7371232;19;20011;-61
2024/04/08 03:41:10;;;;;;;11.13;6.97;;;12.60;99.90;;;;;;7370130;19;20741;-60
2024/04/08 03:43:36;;;;;;;11.32;7.68;;;12.60;99.90;;;;;;7369208;19;20366;-61
2024/04/08 03:46:04;;;;;;;15.43;7.57;;;12.60;99.90;;;;;;7371564;19;20028;-67
2024/04/08 03:48:30;;;;;;;11.27;7.85;;;12.60;99.90;;;;;;7373475;19;20021;-68
2024/04/08 03:51:09;;;;;;;12.75;7.32;;;12.60;99.90;;;;;;7369027;19;20030;-59
2024/04/08 03:53:38;;;;;;;10.45;7.43;;;12.60;99.90;;;;;;7369297;19;20510;-66
2024/04/08 03:56:09;;;;;;;11.63;7.97;;;12.60;99.90;;;;;;7374147;19;20387;-66
2024/04/08 03:58:39;;;;;;;13.35;8.25;;;12.60;99.90;;;;;;7371715;19;20229;-67
2024/04/08 04:01:07;;;;;;;13.73;8.93;;;12.60;99.90;;;;;;7375623;19;20021;-65
2024/04/08 04:03:37;;;;;;;13.38;8.07;;;12.60;99.90;;;;;;7371304;19;20019;-60
2024/04/08 04:06:05;;;;;;;12.55;7.80;;;12.60;99.90;;;;;;7372828;19;20109;-67
2024/04/08 04:08:31;;;;;;;12.45;8.55;;;12.60;99.90;;;;;;7369644;19;20471;-59
2024/04/08 04:10:57;;;;;;;11.38;8.45;;;12.60;99.90;;;;;;7374954;19;20471;-67
2024/04/08 04:13:24;;;;;;;13.55;8.30;;;12.60;99.90;;;;;;7376574;19;20027;-60
2024/04/08 04:15:51;;;;;;;15.68;9.50;;;12.70;99.90;;;;;;7365753;19;20495;-60
2024/04/08 04:18:18;;;;;;;17.67;8.50;;;12.60;99.90;;;;;;7375855;19;20022;-60
2024/04/08 04:20:47;;;;;;;12.50;8.00;;;12.60;99.90;;;;;;7372238;19;20387;-67
2024/04/08 04:23:18;;;;;;;11.32;7.95;;;12.60;99.90;;;;;;7374445;19;20045;-64
2024/04/08 04:25:57;;;;;;;14.02;8.30;;;12.60;99.90;;;;;;7372021;19;20010;-59
2024/04/08 04:28:24;;;;;;;15.20;8.85;;;12.70;99.90;;;;;;7373618;19;20025;-61
2024/04/08 04:30:56;;;;;;;14.07;8.70;;;12.70;99.90;;;;;;7375904;19;20109;-67
2024/04/08 04:33:23;;;;;;;13.23;7.90;;;12.60;99.90;;;;;;7372301;19;20377;-67
2024/04/08 04:35:57;;;;;;;13.98;8.30;;;12.60;99.90;;;;;;7370673;19;20032;-60
2024/04/08 04:38:24;;;;;;;13.23;8.52;;;12.60;99.90;;;;;;7371188;19;20098;-60
2024/04/08 04:41:01;;;;;;;17.48;9.32;;;12.60;99.90;;;;;;7372726;19;20014;-59
2024/04/08 04:43:28;;;;;;;13.48;8.43;;;12.60;99.90;;;;;;7372629;19;20494;-59
2024/04/08 04:45:55;;;;;;;20.23;9.20;;;12.60;99.90;;;;;;7372663;19;20033;-59
2024/04/08 04:48:21;;;;;;;13.68;8.40;;;12.60;99.90;;;;;;7370936;19;20018;-59
2024/04/08 04:50:47;;;;;;;16.10;9.85;;;12.60;99.90;;;;;;7373198;19;20028;-66
2024/04/08 04:53:13;;;;;;;23.38;18.10;;;12.60;99.90;;;;;;7379789;19;20041;-60
2024/04/08 04:55:39;;;;;;;14.57;8.75;;;12.60;99.90;;;;;;7372852;19;20014;-60
2024/04/08 04:58:06;;;;;;;16.75;9.32;;;12.60;99.90;;;;;;7376816;19;20011;-60
2024/04/08 05:00:37;;;;;;;15.95;9.40;;;12.60;99.90;;;;;;7372952;19;20117;-59
2024/04/08 05:03:04;;;;;;;12.32;8.45;;;12.60;99.90;;;;;;7375140;19;20033;-60
2024/04/08 05:05:30;;;;;;;13.95;9.13;;;12.60;99.90;;;;;;7372179;19;20052;-60
2024/04/08 05:07:56;;;;;;;16.67;9.60;;;12.60;99.90;;;;;;7374046;19;20014;-60
2024/04/08 05:10:22;;;;;;;11.70;8.63;;;12.60;99.90;;;;;;7376217;19;20022;-62
2024/04/08 05:12:48;;;;;;;15.98;9.40;;;12.60;99.90;;;;;;7375583;19;20071;-60
2024/04/08 05:15:14;;;;;;;12.05;8.35;;;12.60;99.90;;;;;;7374583;19;20018;-59
2024/04/08 05:17:41;;;;;;;17.05;8.80;;;12.60;99.90;;;;;;7375110;19;20018;-67
2024/04/08 05:20:10;;;;;;;11.98;8.82;;;12.60;99.90;;;;;;7376189;19;20085;-67
2024/04/08 05:22:39;;;;;;;14.60;8.98;;;12.60;99.90;;;;;;7376051;19;20061;-67
2024/04/08 05:25:06;;;;;;;11.60;8.90;;;12.70;99.90;;;;;;7375906;19;20474;-67
2024/04/08 05:27:32;;;;;;;12.00;8.63;;;12.60;99.90;;;;;;7374963;19;20469;-66
2024/04/08 05:29:58;;;;;;;12.90;8.65;;;12.70;99.90;;;;;;7377029;19;20437;-66
2024/04/08 05:32:24;;;;;;;16.08;9.80;;;12.70;99.90;;;;;;7374493;19;20457;-67
2024/04/08 05:34:50;;;;;;;13.25;8.25;;;12.70;99.90;;;;;;7372778;19;20390;-66
2024/04/08 05:37:16;;;;;;;14.15;8.27;;;12.70;99.90;;;;;;7377372;19;20018;-67
2024/04/08 05:39:42;;;;;;;10.95;7.05;;;12.70;99.90;;;;;;7375286;19;20018;-66
2024/04/08 05:42:09;;;;;;;14.20;7.78;;;12.70;99.90;;;;;;7375268;19;20022;-67
2024/04/08 05:44:35;;;;;;;10.82;7.78;;;12.70;99.90;;;;;;7373371;19;20058;-67
2024/04/08 05:47:01;;;;;;;13.13;8.35;;;12.80;99.90;;;;;;7369429;19;20022;-68
2024/04/08 05:49:27;;;;;;;11.40;8.80;;;12.80;99.90;;;;;;7376446;19;20025;-68
2024/04/08 05:51:53;;;;;;;13.65;8.68;;;12.80;99.90;;;;;;7374836;19;20018;-67
2024/04/08 05:54:23;;;;;;;12.13;7.90;;;12.90;99.90;;;;;;7375758;19;20021;-68
2024/04/08 05:56:50;;;;;;;20.50;8.75;;;12.90;99.90;;;;;;7373585;19;20018;-69
2024/04/08 05:59:16;;;;;;;15.15;8.60;;;12.90;99.90;;;;;;7376165;19;20026;-67
2024/04/08 06:01:42;;;;;;;11.98;9.05;;;12.90;99.90;;;;;;7377756;19;20018;-67
2024/04/08 06:04:10;;;;;;;12.40;8.52;;;12.90;99.90;;;;;;7374185;19;20011;-68
2024/04/08 06:06:37;;;;;;;13.98;8.40;;;12.90;99.90;;;;;;7376270;19;20011;-67
2024/04/08 06:09:04;;;;;;;12.10;9.68;;;13.00;99.90;;;;;;7373871;19;20014;-68
2024/04/08 06:11:31;;;;;;;12.77;8.88;;;13.00;99.90;;;;;;7375376;19;20010;-68
2024/04/08 06:13:57;;;;;;;14.50;9.68;;;13.00;99.90;;;;;;7375038;19;20363;-67
2024/04/08 06:16:23;;;;;;;13.52;9.93;;;13.00;99.90;;;;;;7369390;19;20036;-67
2024/04/08 06:18:49;;;;;;;15.60;9.10;;;13.00;99.90;;;;;;7375145;19;20019;-67
2024/04/08 06:21:16;;;;;;;13.65;9.80;;;12.90;99.90;;;;;;7377490;19;20010;-67
2024/04/08 06:23:43;;;;;;;15.23;9.50;;;12.90;99.90;;;;;;7374591;19;20082;-68
2024/04/08 06:26:09;;;;;;;12.48;9.30;;;12.90;99.90;;;;;;7378002;19;20469;-68
2024/04/08 06:28:35;;;;;;;12.75;9.15;;;12.90;99.90;;;;;;7371524;19;20022;-62
2024/04/08 06:31:02;;;;;;;10.77;8.82;;;12.90;99.90;;;;;;7372412;19;20499;-61
2024/04/08 06:33:29;;;;;;;13.10;9.07;;;12.90;99.90;;;;;;7371159;19;20090;-60
2024/04/08 06:35:55;;;;;;;11.05;7.97;;;12.90;99.90;;;;;;7373456;19;20033;-60
2024/04/08 06:38:21;;;;;;;9.55;8.02;;;12.90;99.90;;;;;;7370509;19;20022;-61
2024/04/08 06:40:47;;;;;;;12.93;8.02;;;12.90;99.90;;;;;;7374952;19;20414;-67
2024/04/08 06:43:13;;;;;;;12.02;7.38;;;13.00;99.90;;;;;;7376354;19;20015;-65
2024/04/08 06:45:39;;;;;;;10.10;7.82;;;13.00;99.90;;;;;;7378061;19;20031;-66
2024/04/08 06:48:06;;;;;;;12.10;9.27;;;13.00;99.90;;;;;;7385622;19;20018;-65
2024/04/08 06:50:32;;;;;;;11.10;7.80;;;13.00;99.90;;;;;;7387366;19;20022;-65
2024/04/08 06:52:58;;;;;;;10.65;7.35;;;13.00;99.90;;;;;;7383881;19;20021;-59
2024/04/08 06:55:24;;;;;;;12.20;7.50;;;13.00;99.90;;;;;;7379198;19;20356;-60
2024/04/08 06:57:51;;;;;;;10.82;7.95;;;13.00;99.90;;;;;;7381221;19;20371;-68
2024/04/08 07:00:18;;;;;;;11.05;7.82;;;13.00;99.90;;;;;;7379525;19;20414;-68
2024/04/08 07:02:44;;;;;;;13.27;9.10;;;13.00;99.90;;;;;;7379376;19;20014;-60
2024/04/08 07:05:11;;;;;;;10.98;8.13;;;13.10;99.90;;;;;;7378791;19;20033;-67
2024/04/08 07:07:37;;;;;;;11.00;7.82;;;13.10;99.90;;;;;;7380778;19;20022;-61
2024/04/08 07:10:04;;;;;;;13.18;8.45;;;13.20;99.90;;;;;;7380102;19;20028;-66
2024/04/08 07:12:30;;;;;;;11.77;7.75;;;13.20;99.90;;;;;;7380913;19;20019;-67
2024/04/08 07:14:56;;;;;;;12.60;8.82;;;13.20;99.90;;;;;;7382679;19;20090;-67
2024/04/08 07:17:22;;;;;;;11.18;8.07;;;13.20;99.90;;;;;;7378755;19;20486;-60
2024/04/08 07:19:49;;;;;;;11.20;8.32;;;13.30;99.90;;;;;;7378364;19;20412;-60
2024/04/08 07:22:16;;;;;;;10.93;7.50;;;13.30;99.90;;;;;;7379264;19;20014;-61
2024/04/08 07:24:42;;;;;;;13.40;7.47;;;13.30;99.90;;;;;;7379489;19;20062;-60
2024/04/08 07:27:09;;;;;;;9.73;7.60;;;13.30;99.90;;;;;;7378358;19;20018;-60
2024/04/08 07:29:35;;;;;;;12.68;8.25;;;13.40;99.90;;;;;;7375513;19;20021;-57
2024/04/08 07:32:02;;;;;;;11.00;7.30;;;13.40;99.90;;;;;;7379190;19;20423;-60
2024/04/08 07:34:28;;;;;;;12.90;7.53;;;13.40;99.90;;;;;;7376351;19;20019;-62
2024/04/08 07:36:54;;;;;;;9.38;6.68;;;13.60;99.90;;;;;;7376126;19;20074;-61
2024/04/08 07:39:20;;;;;;;9.88;7.03;;;13.70;99.90;;;;;;7378560;19;20609;-59
2024/04/08 07:41:46;;;;;;;9.02;7.10;;;13.90;99.90;;;;;;7376799;19;20334;-60
2024/04/08 07:44:13;;;;;;;9.57;6.68;;;14.00;99.90;;;;;;7379685;19;20020;-59
2024/04/08 07:46:39;;;;;;;8.27;6.47;;;14.20;99.90;;;;;;7378163;19;20465;-60
2024/04/08 07:49:05;;;;;;;9.10;6.75;;;14.40;99.90;;;;;;7375550;19;20022;-61
2024/04/08 07:51:33;;;;;;;10.20;6.20;;;14.50;99.90;;;;;;7380364;19;20344;-63
2024/04/08 07:54:00;;;;;;;9.30;6.88;;;14.60;99.90;;;;;;7377073;19;20033;-60
2024/04/08 07:56:26;;;;;;;8.93;5.85;;;14.80;99.90;;;;;;7374536;19;20418;-60
2024/04/08 07:58:53;;;;;;;9.50;6.03;;;15.10;99.90;;;;;;7373761;19;20451;-60
2024/04/08 08:01:19;;;;;;;9.02;5.70;;;15.50;99.90;;;;;;7378467;19;20368;-61
2024/04/08 08:03:45;;;;;;;7.90;5.03;;;16.00;99.90;;;;;;7380459;19;20011;-61
2024/04/08 08:06:13;;;;;;;8.00;4.90;;;16.40;99.90;;;;;;7378824;19;20399;-61
2024/04/08 08:08:39;;;;;;;7.50;5.22;;;16.60;99.90;;;;;;7376268;19;20017;-60
2024/04/08 08:11:06;;;;;;;8.00;5.03;;;16.80;99.90;;;;;;7375159;19;20014;-60
2024/04/08 08:13:33;;;;;;;9.20;4.05;;;16.90;99.90;;;;;;7375274;19;20081;-62
2024/04/08 08:16:00;;;;;;;6.95;3.92;;;16.90;99.90;;;;;;7374916;19;20636;-61
2024/04/08 08:18:26;;;;;;;6.38;4.30;;;17.20;99.90;;;;;;7369515;19;20040;-59
2024/04/08 08:20:53;;;;;;;7.43;4.22;;;17.40;99.90;;;;;;7377693;19;20014;-59
2024/04/08 08:23:20;;;;;;;8.10;4.30;;;17.50;99.90;;;;;;7374447;19;20039;-59
2024/04/08 08:25:47;;;;;;;5.85;3.97;;;17.50;99.90;;;;;;7375166;19;20018;-60
2024/04/08 08:28:14;;;;;;;7.25;4.28;;;17.80;99.90;;;;;;7374823;19;20495;-60
2024/04/08 08:30:40;;;;;;;5.95;4.18;;;18.30;99.90;;;;;;7376025;19;20014;-59
2024/04/08 08:33:07;;;;;;;6.22;4.60;;;18.40;99.90;;;;;;7374878;19;20640;-60
2024/04/08 08:35:33;;;;;;;7.60;4.35;;;18.40;99.90;;;;;;7372719;19;20078;-60
2024/04/08 08:37:59;;;;;;;6.35;4.18;;;18.30;99.90;;;;;;7373080;19;20131;-60
2024/04/08 08:40:26;;;;;;;7.30;4.53;;;18.10;1.00;;;;;;7376188;19;20031;-59
2024/04/08 08:42:57;;;;;;;7.05;4.82;;;17.90;99.90;;;;;;7376604;19;20023;-61
2024/04/08 08:45:24;;;;;;;7.97;4.78;;;17.70;99.90;;;;;;7372312;19;20625;-60
2024/04/08 08:47:50;;;;;;;7.15;4.63;;;17.30;99.90;;;;;;7373377;19;20033;-61
2024/04/08 08:50:16;;;;;;;8.48;5.53;;;17.10;99.90;;;;;;7374250;19;20022;-61
2024/04/08 08:52:43;;;;;;;7.53;4.30;;;16.80;99.90;;;;;;7373014;19;20041;-61
2024/04/08 08:55:09;;;;;;;7.60;4.70;;;16.70;99.90;;;;;;7373866;19;20022;-60
2024/04/08 08:57:36;;;;;;;8.55;4.95;;;16.60;99.90;;;;;;7373997;19;20059;-61
2024/04/08 09:00:07;;;;;;;8.10;5.20;;;16.60;99.90;;;;;;7377069;19;20044;-67
2024/04/08 09:02:35;;;;;;;9.10;4.97;;;16.60;99.90;;;;;;7378723;19;20018;-66
2024/04/08 09:05:01;;;;;;;9.73;5.38;;;16.80;99.90;;;;;;7373446;19;20018;-68
2024/04/08 09:07:27;;;;;;;7.30;4.93;;;17.00;99.90;;;;;;7373064;19;20036;-68
2024/04/08 09:09:58;;;;;;;8.13;4.88;;;17.30;99.90;;;;;;7374022;19;20014;-66
2024/04/08 09:12:27;;;;;;;7.65;4.40;;;17.30;99.90;;;;;;7374674;19;20078;-66
2024/04/08 09:14:54;;;;;;;7.63;4.47;;;17.60;99.90;;;;;;7374685;19;20041;-67
2024/04/08 09:17:21;;;;;;;6.88;4.03;;;18.30;31.60;;;;;;7372804;19;20029;-72
2024/04/08 09:19:47;;;;;;;6.60;3.65;;;19.00;99.90;;;;;;7375060;19;20022;-62
2024/04/08 09:22:14;;;;;;;7.10;3.75;;;19.40;16.60;;;;;;7374878;19;20019;-61
2024/04/08 09:24:46;;;;;;;5.38;3.72;;;19.70;1.30;;;;;;7371137;19;20372;-61
2024/04/08 09:27:12;;;;;;;6.82;3.85;;;20.00;1.00;;;;;;7373509;19;20015;-60
2024/04/08 09:29:38;;;;;;;5.65;4.13;;;19.70;1.00;;;;;;7369780;19;20101;-60
2024/04/08 09:32:08;;;;;;;6.43;4.05;;;19.30;99.90;;;;;;7372497;19;20018;-60
2024/04/08 09:34:34;;;;;;;7.82;4.03;;;19.30;1.00;;;;;;7371916;19;20367;-61
2024/04/08 09:37:02;;;;;;;5.70;3.67;;;19.40;1.00;;;;;;7370376;19;20108;-61
2024/04/08 09:39:30;;;;;;;6.68;4.15;;;19.30;1.00;;;;;;7372053;19;20387;-61
2024/04/08 09:41:59;;;;;;;6.68;4.22;;;19.40;99.90;;;;;;7368954;19;20015;-60
2024/04/08 09:44:30;;;;;;;7.00;3.65;;;19.60;99.90;;;;;;7372635;19;20490;-60
2024/04/08 09:47:02;;;;;;;7.35;4.13;;;20.30;99.90;;;;;;7371267;19;20022;-62
2024/04/08 09:49:28;;;;;;;8.20;4.28;;;20.60;99.90;;;;;;7370719;19;20018;-60
2024/04/08 09:51:55;;;;;;;6.63;3.50;;;20.40;99.90;;;;;;7368583;19;20608;-60
2024/04/08 09:54:22;;;;;;;7.20;3.63;;;20.60;99.90;;;;;;7370473;19;20018;-59
2024/04/08 09:57:02;;;;;;;6.63;3.80;;;20.70;1.00;;;;;;7370047;19;20017;-60
2024/04/08 09:59:29;;;;;;;4.70;3.78;;;20.70;1.00;;;;;;7369759;19;20019;-61
2024/04/08 10:01:55;;;;;;;8.70;4.22;;;21.00;1.00;;;;;;7369694;19;20078;-61
2024/04/08 10:04:23;;;;;;;8.07;3.55;;;21.40;1.00;;;;;;7370180;19;20018;-61
2024/04/08 10:06:51;;;;;;;4.43;3.15;;;21.80;1.00;;;;;;7370758;19;20014;-60
2024/04/08 10:09:21;;;;;;;7.82;3.30;;;22.30;99.90;;;;;;7367874;19;20031;-65
2024/04/08 10:11:50;;;;;;;5.50;3.00;;;22.70;99.90;;;;;;7370003;19;20018;-61
2024/04/08 10:14:27;;;;;;;5.15;3.05;;;22.60;99.90;;;;;;7370450;19;20403;-62
2024/04/08 10:16:53;;;;;;;6.68;2.92;;;22.80;24.40;;;;;;7369923;19;20025;-66
2024/04/08 10:19:21;;;;;;;5.82;3.42;;;22.90;92.30;;;;;;7366818;19;20094;-61
2024/04/08 10:21:51;;;;;;;7.05;2.92;;;23.10;38.90;;;;;;7369090;19;20518;-61
2024/04/08 10:24:37;;;;;;;6.28;3.05;;;23.00;99.90;;;;;;7374749;19;20488;-61
2024/04/08 10:27:05;;;;;;;7.68;5.40;;;23.50;1.00;;;;;;7377570;19;20112;-61
2024/04/08 10:29:33;;;;;;;7.45;3.03;;;23.50;1.00;;;;;;7375049;19;20621;-61
2024/04/08 10:32:00;;;;;;;5.38;3.00;;;23.10;1.00;;;;;;7378763;19;20760;-61
2024/04/08 10:34:28;;;;;;;5.18;2.65;;;22.60;1.00;;;;;;7376221;19;20608;-61
2024/04/08 10:36:55;;;;;;;5.55;2.90;;;22.60;1.00;;;;;;7374987;19;20371;-61
2024/04/08 10:39:27;;;;;;;4.10;2.47;;;23.00;1.00;;;;;;7377497;19;20628;-61
2024/04/08 10:42:16;;;;;;;5.53;2.80;;;22.30;1.00;;;;;;7375977;19;20021;-62
2024/04/08 10:44:42;;;;;;;5.78;3.40;;;22.30;1.00;;;;;;7372957;19;20036;-62
2024/04/08 10:47:09;;;;;;;6.13;2.83;;;22.20;1.00;;;;;;7379243;19;20018;-61
2024/04/08 10:49:35;;;;;;;5.68;2.58;;;21.90;12.40;;;;;;7376764;19;20081;-60
2024/04/08 10:52:02;;;;;;;8.77;3.42;;;21.70;45.60;;;;;;7376007;19;20011;-61
2024/04/08 10:54:30;;;;;;;5.00;2.88;;;22.00;1.00;;;;;;7377655;19;20018;-61
2024/04/08 10:56:56;;;;;;;6.35;2.47;;;21.90;1.00;;;;;;7377145;19;20018;-67
2024/04/08 10:59:23;;;;;;;5.40;2.42;;;21.60;13.40;;;;;;7385540;19;20462;-66
2024/04/08 11:01:49;;;;;;;5.68;2.47;;;21.20;55.60;;;;;;7380683;19;20740;-60
2024/04/08 11:04:18;;;;;;;4.07;1.98;;;21.60;1.00;;;;;;7375647;19;20398;-61
2024/04/08 11:06:44;;;;;;;4.10;2.40;;;21.70;1.00;;;;;;7375076;19;20022;-61
2024/04/08 11:09:10;;;;;;;6.10;2.60;;;21.60;1.00;;;;;;7378305;19;20011;-61
2024/04/08 11:11:37;;;;;;;6.45;1.92;;;21.40;1.00;;;;;;7375251;19;20014;-63
2024/04/08 11:14:03;;;;;;;4.47;1.80;;;21.40;1.00;;;;;;7371194;19;20078;-61
2024/04/08 11:16:29;;;;;;;6.30;2.45;;;21.20;1.00;;;;;;7374047;19;20018;-60
2024/04/08 11:18:55;;;;;;;5.47;2.30;;;21.00;1.00;;;;;;7374298;19;20394;-60
2024/04/08 11:21:21;;;;;;;2.78;1.60;;;20.80;44.40;;;;;;7376613;19;20018;-61
2024/04/08 11:23:48;;;;;;;7.05;4.03;;;20.80;26.30;;;;;;7375335;19;20018;-59
2024/04/08 11:26:16;;;;;;;5.57;2.53;;;21.10;30.10;;;;;;7378594;19;20339;-61
2024/04/08 11:28:44;;;;;;;6.25;2.15;;;21.10;13.80;;;;;;7377163;19;20036;-62
2024/04/08 11:31:10;;;;;;;5.07;1.58;;;21.30;1.00;;;;;;7378743;19;20018;-61
2024/04/08 11:33:36;;;;;;;6.35;1.50;;;21.90;1.00;;;;;;7371750;19;20014;-61
2024/04/08 11:36:03;;;;;;;4.15;1.25;;;22.70;1.00;;;;;;7377825;19;20007;-62
2024/04/08 11:38:29;;;;;;;2.67;1.08;;;23.00;1.00;;;;;;7374782;19;20022;-61
2024/04/08 11:40:57;;;;;;;4.57;1.20;;;23.00;1.00;;;;;;7375485;19;20021;-62
2024/04/08 11:43:24;;;;;;;4.38;1.40;;;22.50;1.00;;;;;;7380184;19;20025;-62
2024/04/08 11:45:50;;;;;;;3.42;1.80;;;22.40;1.00;;;;;;7376644;19;20025;-61
2024/04/08 11:48:18;;;;;;;3.47;1.70;;;21.60;1.00;;;;;;7381697;19;20010;-62
2024/04/08 11:50:44;;;;;;;3.40;1.70;;;21.10;1.00;;;;;;7375289;19;20018;-63
2024/04/08 11:53:11;;;;;;;5.40;2.45;;;21.30;1.00;;;;;;7378300;19;20071;-61
2024/04/08 11:55:38;;;;;;;3.53;1.77;;;21.70;1.00;;;;;;7375093;19;20106;-61
2024/04/08 11:58:04;;;;;;;5.38;1.90;;;22.20;1.00;;;;;;7375176;19;20049;-63
2024/04/08 12:00:31;;;;;;;5.53;2.00;;;22.50;1.00;;;;;;7374004;19;20015;-61
2024/04/08 12:02:57;;;;;;;3.65;1.52;;;22.70;1.00;;;;;;7377138;19;20022;-61
2024/04/08 12:05:23;;;;;;;4.80;1.80;;;22.70;1.00;;;;;;7376413;19;20015;-61
2024/04/08 12:07:49;;;;;;;3.83;1.20;;;22.70;1.00;;;;;;7378232;19;20053;-60
2024/04/08 12:10:16;;;;;;;5.32;1.70;;;22.70;1.00;;;;;;7372369;19;20015;-60
2024/04/08 12:12:42;;;;;;;4.03;1.42;;;23.00;99.90;;;;;;7377049;19;20056;-61
2024/04/08 12:15:08;;;;;;;4.45;1.58;;;22.80;99.90;;;;;;7373114;19;20098;-60
2024/04/08 12:17:34;;;;;;;4.20;1.75;;;22.70;1.00;;;;;;7373047;19;20011;-61
2024/04/08 12:20:01;;;;;;;4.90;1.75;;;22.30;1.00;;;;;;7376772;19;20610;-60
2024/04/08 12:22:27;;;;;;;5.00;1.45;;;22.00;1.00;;;;;;7372841;19;20035;-61
2024/04/08 12:24:53;;;;;;;3.08;1.50;;;21.80;1.00;;;;;;7373825;19;20415;-60
2024/04/08 12:27:20;;;;;;;3.42;1.70;;;21.60;1.00;;;;;;7377342;19;20085;-60
2024/04/08 12:29:46;;;;;;;4.07;1.30;;;21.40;1.00;;;;;;7377412;19;20023;-61
2024/04/08 12:32:14;;;;;;;2.80;1.48;;;21.20;1.00;;;;;;7375000;19;20014;-61
2024/04/08 12:34:40;;;;;;;5.60;1.67;;;21.20;1.00;;;;;;7373668;19;20082;-60
2024/04/08 12:37:07;;;;;;;5.13;1.65;;;20.90;8.20;;;;;;7373347;19;20406;-60
2024/04/08 12:39:34;;;;;;;5.32;2.40;;;20.70;22.00;;;;;;7376428;19;20120;-61
2024/04/08 12:42:00;;;;;;;4.03;1.58;;;20.50;38.70;;;;;;7376198;19;20026;-60